Time;durP1;ratioP1;P1;durP2;ratioP2;P2;SDS_P1;SDS_P2;PMS_P1;PMS_P2;Temp;Humidity;BMP_temperature;BMP_pressure;BME280_temperature;BME280_humidity;BME280_pressure;Samples;Min_cycle;Max_cycle;Signal;HPM_P1;HPM_P2
2022/06/23 00:02:19;;;;;;;;;;;;;;;;;;5131255;28;1187;-66
2022/06/23 00:04:46;;;;;;;;;;;;;;;;;;5131674;27;990;-66
2022/06/23 00:07:17;;;;;;;;;;;;;;;;;;5130786;27;816;-65
2022/06/23 00:09:45;;;;;;;;;;;;;;;;;;5129777;28;1233;-66
2022/06/23 00:12:13;;;;;;;;;;;;;;;;;;5130597;28;995;-65
2022/06/23 00:14:38;;;;;;;;;;;;;;;;;;5131024;28;1909;-65
2022/06/23 00:17:22;;;;;;;;;;;;;;;;;;5130878;27;840;-66
2022/06/23 00:19:48;;;;;;;;;;;;;;;;;;5130842;27;935;-66
2022/06/23 00:22:14;;;;;;;;;;;;;;;;;;5128840;27;1314;-65
2022/06/23 00:24:40;;;;;;;;;;;;;;;;;;5131255;27;891;-65
2022/06/23 00:27:05;;;;;;;;;;;;;;;;;;5130249;27;958;-65
2022/06/23 00:29:31;;;;;;;;;;;;;;;;;;5130939;27;890;-65
2022/06/23 00:32:04;;;;;;;;;;;;;;;;;;5134107;27;1229;-66
2022/06/23 00:34:40;;;;;;;;;;;;;;;;;;5135637;27;813;-66
2022/06/23 00:37:13;;;;;;;;;;;;;;;;;;5134682;27;927;-65
2022/06/23 00:39:42;;;;;;;;;;;;;;;;;;5135071;27;895;-65
2022/06/23 00:42:17;;;;;;;;;;;;;;;;;;5132669;27;873;-65
2022/06/23 00:45:04;;;;;;;;;;;;;;;;;;5134561;27;915;-65
2022/06/23 00:47:49;;;;;;;;;;;;;;;;;;5134444;27;931;-66
2022/06/23 00:50:14;;;;;;;;;;;;;;;;;;5134062;27;1009;-66
2022/06/23 00:53:06;;;;;;;;;;;;;;;;;;5133387;27;1297;-66
2022/06/23 00:55:39;;;;;;;;;;;;;;;;;;5101580;27;1902;-67
2022/06/23 00:58:07;;;;;;;;;;;;;;;;;;5132838;27;892;-67
2022/06/23 01:00:35;;;;;;;;;;;;;;;;;;5134726;27;908;-66
2022/06/23 01:03:07;;;;;;;;;;;;;;;;;;5134546;27;957;-66
2022/06/23 01:05:36;;;;;;;;;;;;;;;;;;5134649;27;840;-67
2022/06/23 01:08:04;;;;;;;;;;;;;;;;;;5134457;27;828;-66
2022/06/23 01:10:39;;;;;;;;;;;;;;;;;;5132784;27;1142;-66
2022/06/23 01:13:05;;;;;;;;;;;;;;;;;;5132943;27;1182;-66
2022/06/23 01:15:33;;;;;;;;;;;;;;;;;;5131758;27;1905;-66
2022/06/23 01:18:17;;;;;;;;;;;;;;;;;;5127413;27;1234;-66
2022/06/23 01:20:55;;;;;;;;;;;;;;;;;;5115861;27;1154;-66
2022/06/23 01:23:23;;;;;;;;;;;;;;;;;;5113493;28;880;-66
2022/06/23 01:26:06;;;;;;;;;;;;;;;;;;5113964;28;959;-66
2022/06/23 01:28:37;;;;;;;;;;;;;;;;;;5114148;28;1029;-66
2022/06/23 01:31:05;;;;;;;;;;;;;;;;;;5113845;28;1234;-66
2022/06/23 01:33:39;;;;;;;;;;;;;;;;;;5113951;28;868;-66
2022/06/23 01:36:19;;;;;;;;;;;;;;;;;;5113382;28;1902;-66
2022/06/23 01:38:58;;;;;;;;;;;;;;;;;;5113951;28;867;-66
2022/06/23 01:41:33;;;;;;;;;;;;;;;;;;5113305;28;805;-66
2022/06/23 01:44:08;;;;;;;;;;;;;;;;;;5112137;28;1187;-66
2022/06/23 01:46:37;;;;;;;;;;;;;;;;;;5113713;28;919;-67
2022/06/23 01:49:08;;;;;;;;;;;;;;;;;;5113150;28;976;-67
2022/06/23 01:51:33;;;;;;;;;;;;;;;;;;5113440;28;907;-66
2022/06/23 01:54:11;;;;;;;;;;;;;;;;;;5111378;28;1320;-66
2022/06/23 01:56:36;;;;;;;;;;;;;;;;;;5113069;28;1964;-66
2022/06/23 01:59:04;;;;;;;;;;;;;;;;;;5112833;28;777;-66
2022/06/23 02:01:35;;;;;;;;;;;;;;;;;;5112401;28;896;-66
2022/06/23 02:04:07;;;;;;;;;;;;;;;;;;5113007;28;911;-67
2022/06/23 02:06:44;;;;;;;;;;;;;;;;;;5112760;27;934;-66
2022/06/23 02:09:13;;;;;;;;;;;;;;;;;;5112836;28;891;-66
2022/06/23 02:11:42;;;;;;;;;;;;;;;;;;5111938;28;1194;-66
2022/06/23 02:14:13;;;;;;;;;;;;;;;;;;5112674;28;828;-67
2022/06/23 02:16:53;;;;;;;;;;;;;;;;;;5112538;28;1961;-67
2022/06/23 02:19:21;;;;;;;;;;;;;;;;;;5112035;28;879;-66
2022/06/23 02:21:52;;;;;;;;;;;;;;;;;;5113129;28;906;-66
2022/06/23 02:24:17;;;;;;;;;;;;;;;;;;5111728;28;832;-66
2022/06/23 02:27:21;;;;;;;;;;;;;;;;;;5112406;28;836;-65
2022/06/23 02:30:00;;;;;;;;;;;;;;;;;;5068975;28;1212;-66
2022/06/23 02:32:31;;;;;;;;;;;;;;;;;;5068279;28;1097;-66
2022/06/23 02:35:02;;;;;;;;;;;;;;;;;;5085075;28;1918;-66
2022/06/23 02:37:46;;;;;;;;;;;;;;;;;;5110213;28;1158;-66
2022/06/23 02:40:17;;;;;;;;;;;;;;;;;;5111856;28;888;-66
2022/06/23 02:42:42;;;;;;;;;;;;;;;;;;5112245;28;781;-66
2022/06/23 02:45:17;;;;;;;;;;;;;;;;;;5110383;28;982;-66
2022/06/23 02:47:54;;;;;;;;;;;;;;;;;;5111987;28;863;-66
2022/06/23 02:50:27;;;;;;;;;;;;;;;;;;5111885;28;833;-65
2022/06/23 02:53:08;;;;;;;;;;;;;;;;;;5110593;28;1309;-66
2022/06/23 02:55:36;;;;;;;;;;;;;;;;;;5111662;28;1897;-66
2022/06/23 02:58:06;;;;;;;;;;;;;;;;;;5113266;28;998;-66
2022/06/23 03:00:50;;;;;;;;;;;;;;;;;;5113183;28;939;-66
2022/06/23 03:03:34;;;;;;;;;;;;;;;;;;5113469;28;781;-66
2022/06/23 03:06:04;;;;;;;;;;;;;;;;;;5113274;28;1066;-66
2022/06/23 03:08:36;;;;;;;;;;;;;;;;;;5111203;28;1263;-65
2022/06/23 03:11:07;;;;;;;;;;;;;;;;;;5111328;28;1269;-66
2022/06/23 03:13:36;;;;;;;;;;;;;;;;;;5113099;28;971;-66
2022/06/23 03:16:12;;;;;;;;;;;;;;;;;;5112813;28;1954;-66
2022/06/23 03:18:50;;;;;;;;;;;;;;;;;;5112072;28;915;-66
2022/06/23 03:21:20;;;;;;;;;;;;;;;;;;5113242;28;959;-66
2022/06/23 03:23:48;;;;;;;;;;;;;;;;;;5111026;28;805;-66
2022/06/23 03:26:19;;;;;;;;;;;;;;;;;;5111893;28;863;-66
2022/06/23 03:28:45;;;;;;;;;;;;;;;;;;5112550;28;1100;-66
2022/06/23 03:31:20;;;;;;;;;;;;;;;;;;5110848;28;1068;-66
2022/06/23 03:33:52;;;;;;;;;;;;;;;;;;5111299;28;1014;-66
2022/06/23 03:36:34;;;;;;;;;;;;;;;;;;5111008;28;1914;-67
2022/06/23 03:42:10;;;;;;;;;;;;;;;;;;5111198;28;682;-66
2022/06/23 03:44:42;;;;;;;;;;;;;;;;;;5110715;28;895;-66
2022/06/23 03:47:40;;;;;;;;;;;;;;;;;;5109371;28;1446;-66
2022/06/23 03:50:17;;;;;;;;;;;;;;;;;;5086967;28;1119;-65
2022/06/23 03:52:45;;;;;;;;;;;;;;;;;;5110594;28;1003;-65
2022/06/23 03:55:31;;;;;;;;;;;;;;;;;;5110826;28;1914;-66
2022/06/23 03:58:01;;;;;;;;;;;;;;;;;;5109419;28;1514;-65
2022/06/23 04:00:30;;;;;;;;;;;;;;;;;;5108680;28;1289;-65
2022/06/23 04:03:05;;;;;;;;;;;;;;;;;;5110960;28;943;-65
2022/06/23 04:05:58;;;;;;;;;;;;;;;;;;5111287;28;931;-65
2022/06/23 04:08:29;;;;;;;;;;;;;;;;;;5112734;28;1127;-65
2022/06/23 04:10:58;;;;;;;;;;;;;;;;;;5114805;28;891;-65
2022/06/23 04:13:31;;;;;;;;;;;;;;;;;;5112951;28;1257;-65
2022/06/23 04:16:03;;;;;;;;;;;;;;;;;;5114849;28;1959;-65
2022/06/23 04:18:29;;;;;;;;;;;;;;;;;;5114135;28;951;-65
2022/06/23 04:21:08;;;;;;;;;;;;;;;;;;5114818;27;864;-65
2022/06/23 04:23:35;;;;;;;;;;;;;;;;;;5114422;28;903;-65
2022/06/23 04:26:19;;;;;;;;;;;;;;;;;;5113003;28;1198;-66
2022/06/23 04:28:44;;;;;;;;;;;;;;;;;;5117872;27;1186;-66
2022/06/23 04:31:13;;;;;;;;;;;;;;;;;;5113502;28;1226;-66
2022/06/23 04:33:39;;;;;;;;;;;;;;;;;;5114521;28;963;-65
2022/06/23 04:36:05;;;;;;;;;;;;;;;;;;5112910;27;1913;-65
2022/06/23 04:38:35;;;;;;;;;;;;;;;;;;5117523;27;1139;-65
2022/06/23 04:41:04;;;;;;;;;;;;;;;;;;5113867;28;1163;-66
2022/06/23 04:43:30;;;;;;;;;;;;;;;;;;5114606;28;1134;-65
2022/06/23 04:46:15;;;;;;;;;;;;;;;;;;5115306;28;911;-66
2022/06/23 04:48:43;;;;;;;;;;;;;;;;;;5114315;28;1167;-65
2022/06/23 04:51:19;;;;;;;;;;;;;;;;;;5114389;28;978;-65
2022/06/23 04:53:49;;;;;;;;;;;;;;;;;;5114589;28;801;-65
2022/06/23 04:56:17;;;;;;;;;;;;;;;;;;5114117;28;1893;-65
2022/06/23 04:58:54;;;;;;;;;;;;;;;;;;5114220;28;872;-64
2022/06/23 05:01:22;;;;;;;;;;;;;;;;;;5114312;28;867;-65
2022/06/23 05:03:51;;;;;;;;;;;;;;;;;;5114003;28;837;-66
2022/06/23 05:06:38;;;;;;;;;;;;;;;;;;5113499;28;911;-65
2022/06/23 05:09:06;;;;;;;;;;;;;;;;;;5113862;28;896;-65
2022/06/23 05:11:52;;;;;;;;;;;;;;;;;;5114230;28;943;-65
2022/06/23 05:14:20;;;;;;;;;;;;;;;;;;5113305;28;903;-65
2022/06/23 05:16:48;;;;;;;;;;;;;;;;;;5112203;28;1902;-65
2022/06/23 05:19:23;;;;;;;;;;;;;;;;;;5113199;28;801;-65
2022/06/23 05:21:51;;;;;;;;;;;;;;;;;;5113758;28;825;-66
2022/06/23 05:24:22;;;;;;;;;;;;;;;;;;5113121;28;1014;-65
2022/06/23 05:26:54;;;;;;;;;;;;;;;;;;5111731;28;1210;-65
2022/06/23 05:29:23;;;;;;;;;;;;;;;;;;5113160;28;1044;-65
2022/06/23 05:31:50;;;;;;;;;;;;;;;;;;5113213;28;1332;-65
2022/06/23 05:34:24;;;;;;;;;;;;;;;;;;5113280;28;741;-65
2022/06/23 05:36:58;;;;;;;;;;;;;;;;;;5130476;27;1973;-65
2022/06/23 05:39:46;;;;;;;;;;;;;;;;;;5133653;27;899;-65
2022/06/23 05:42:16;;;;;;;;;;;;;;;;;;5124658;27;1151;-65
2022/06/23 05:44:47;;;;;;;;;;;;;;;;;;5133936;27;856;-66
2022/06/23 05:47:13;;;;;;;;;;;;;;;;;;5133534;27;953;-65
2022/06/23 05:49:43;;;;;;;;;;;;;;;;;;5132261;27;1288;-65
2022/06/23 05:52:23;;;;;;;;;;;;;;;;;;5133901;27;797;-66
2022/06/23 05:54:53;;;;;;;;;;;;;;;;;;5133225;27;1953;-66
2022/06/23 05:57:25;;;;;;;;;;;;;;;;;;5133529;27;863;-66
2022/06/23 06:00:09;;;;;;;;;;;;;;;;;;5133283;27;997;-65
2022/06/23 06:02:40;;;;;;;;;;;;;;;;;;5129599;27;1142;-66
2022/06/23 06:05:08;;;;;;;;;;;;;;;;;;5113226;27;1067;-65
2022/06/23 06:07:36;;;;;;;;;;;;;;;;;;5107995;28;1271;-65
2022/06/23 06:10:04;;;;;;;;;;;;;;;;;;5112270;28;907;-65
2022/06/23 06:12:35;;;;;;;;;;;;;;;;;;5111981;28;773;-65
2022/06/23 06:15:01;;;;;;;;;;;;;;;;;;5112178;28;1890;-66
2022/06/23 06:17:28;;;;;;;;;;;;;;;;;;5110655;28;1499;-65
2022/06/23 06:19:54;;;;;;;;;;;;;;;;;;5112112;28;781;-65
2022/06/23 06:22:39;;;;;;;;;;;;;;;;;;5110198;28;911;-65
2022/06/23 06:25:05;;;;;;;;;;;;;;;;;;5111997;28;817;-65
2022/06/23 06:27:30;;;;;;;;;;;;;;;;;;5110313;28;986;-65
2022/06/23 06:29:56;;;;;;;;;;;;;;;;;;5111637;28;986;-65
2022/06/23 06:32:27;;;;;;;;;;;;;;;;;;5111902;28;1092;-66
2022/06/23 06:35:12;;;;;;;;;;;;;;;;;;5112508;28;1921;-66
2022/06/23 06:37:42;;;;;;;;;;;;;;;;;;5112126;28;1146;-65
2022/06/23 06:40:08;;;;;;;;;;;;;;;;;;5111337;28;822;-65
2022/06/23 06:42:36;;;;;;;;;;;;;;;;;;5111027;28;860;-65
2022/06/23 06:45:03;;;;;;;;;;;;;;;;;;5112638;28;891;-65
2022/06/23 06:47:31;;;;;;;;;;;;;;;;;;5112172;28;999;-65
2022/06/23 06:49:59;;;;;;;;;;;;;;;;;;5112193;28;837;-65
2022/06/23 06:52:25;;;;;;;;;;;;;;;;;;5112731;28;804;-65
2022/06/23 06:54:59;;;;;;;;;;;;;;;;;;5112193;28;1913;-65
2022/06/23 06:57:33;;;;;;;;;;;;;;;;;;5111597;28;801;-65
2022/06/23 07:00:08;;;;;;;;;;;;;;;;;;5111764;28;824;-65
2022/06/23 07:02:40;;;;;;;;;;;;;;;;;;5109860;28;1209;-65
2022/06/23 07:05:21;;;;;;;;;;;;;;;;;;5111290;28;1037;-65
2022/06/23 07:07:48;;;;;;;;;;;;;;;;;;5111481;28;879;-65
2022/06/23 07:10:24;;;;;;;;;;;;;;;;;;5109925;28;1230;-64
2022/06/23 07:12:53;;;;;;;;;;;;;;;;;;5110640;28;1187;-65
2022/06/23 07:15:24;;;;;;;;;;;;;;;;;;5111470;28;1897;-64
2022/06/23 07:17:56;;;;;;;;;;;;;;;;;;5109710;28;1229;-65
2022/06/23 07:20:37;;;;;;;;;;;;;;;;;;5109804;28;917;-66
2022/06/23 07:23:08;;;;;;;;;;;;;;;;;;5111346;28;793;-65
2022/06/23 07:25:35;;;;;;;;;;;;;;;;;;5109675;28;1228;-65
2022/06/23 07:28:09;;;;;;;;;;;;;;;;;;5109184;28;1222;-65
2022/06/23 07:30:37;;;;;;;;;;;;;;;;;;5110888;28;1264;-65
2022/06/23 07:33:11;;;;;;;;;;;;;;;;;;5109263;28;1134;-65
2022/06/23 07:36:00;;;;;;;;;;;;;;;;;;5109530;28;1917;-65
2022/06/23 07:38:29;;;;;;;;;;;;;;;;;;5101172;28;1518;-66
2022/06/23 07:40:57;;;;;;;;;;;;;;;;;;5110326;28;878;-65
2022/06/23 07:43:43;;;;;;;;;;;;;;;;;;5109598;28;1304;-67
2022/06/23 07:46:08;;;;;;;;;;;;;;;;;;5110552;27;1226;-68
2022/06/23 07:48:35;;;;;;;;;;;;;;;;;;5111047;28;793;-67
2022/06/23 07:51:02;;;;;;;;;;;;;;;;;;5110991;28;808;-67
2022/06/23 07:53:29;;;;;;;;;;;;;;;;;;5110463;28;994;-67
2022/06/23 07:55:55;;;;;;;;;;;;;;;;;;5109583;28;1902;-67
2022/06/23 07:58:29;;;;;;;;;;;;;;;;;;5109270;28;1225;-68
2022/06/23 08:01:06;;;;;;;;;;;;;;;;;;5110860;28;970;-67
2022/06/23 08:03:50;;;;;;;;;;;;;;;;;;5109501;28;1448;-68
2022/06/23 08:06:18;;;;;;;;;;;;;;;;;;5109191;28;1316;-67
2022/06/23 08:08:44;;;;;;;;;;;;;;;;;;5109490;28;1225;-68
2022/06/23 08:13:58;;;;;;;;;;;;;;;;;;5111270;28;729;-66
2022/06/23 08:19:12;;;;;;;;;;;;;;;;;;5111193;28;709;-66
2022/06/23 08:21:43;;;;;;;;;;;;;;;;;;5111755;28;895;-66
2022/06/23 08:24:14;;;;;;;;;;;;;;;;;;5111614;28;1177;-66
2022/06/23 08:26:41;;;;;;;;;;;;;;;;;;5111977;28;782;-66
2022/06/23 08:29:08;;;;;;;;;;;;;;;;;;5109975;28;1175;-66
2022/06/23 08:31:34;;;;;;;;;;;;;;;;;;5110880;28;1044;-66
2022/06/23 08:34:01;;;;;;;;;;;;;;;;;;5111341;28;895;-66
2022/06/23 08:36:30;;;;;;;;;;;;;;;;;;5111005;28;1918;-66
2022/06/23 08:39:00;;;;;;;;;;;;;;;;;;5111386;28;958;-66
2022/06/23 08:41:37;;;;;;;;;;;;;;;;;;5128233;28;1159;-66
2022/06/23 08:44:09;;;;;;;;;;;;;;;;;;5120515;28;1368;-67
2022/06/23 08:46:44;;;;;;;;;;;;;;;;;;5119313;28;1285;-67
2022/06/23 08:49:24;;;;;;;;;;;;;;;;;;5111279;28;919;-67
2022/06/23 08:51:52;;;;;;;;;;;;;;;;;;5112853;28;765;-66
2022/06/23 08:54:33;;;;;;;;;;;;;;;;;;5115707;28;962;-66
2022/06/23 08:57:03;;;;;;;;;;;;;;;;;;5115171;28;1970;-67
2022/06/23 08:59:29;;;;;;;;;;;;;;;;;;5115093;28;856;-67
2022/06/23 09:01:56;;;;;;;;;;;;;;;;;;5115113;28;785;-66
2022/06/23 09:04:40;;;;;;;;;;;;;;;;;;5114537;28;903;-67
2022/06/23 09:07:19;;;;;;;;;;;;;;;;;;5113279;28;1365;-67
2022/06/23 09:09:53;;;;;;;;;;;;;;;;;;5113754;28;1143;-67
2022/06/23 09:12:21;;;;;;;;;;;;;;;;;;5113601;28;896;-66
2022/06/23 09:14:54;;;;;;;;;;;;;;;;;;5114288;28;844;-67
2022/06/23 09:17:38;;;;;;;;;;;;;;;;;;5112118;28;899;-67
2022/06/23 09:20:16;;;;;;;;;;;;;;;;;;5112526;28;1908;-66
2022/06/23 09:23:04;;;;;;;;;;;;;;;;;;5114486;28;997;-66
2022/06/23 09:25:32;;;;;;;;;;;;;;;;;;5113674;28;848;-67
2022/06/23 09:28:12;;;;;;;;;;;;;;;;;;5114235;28;1030;-67
2022/06/23 09:30:42;;;;;;;;;;;;;;;;;;5113398;28;1311;-66
2022/06/23 09:33:22;;;;;;;;;;;;;;;;;;5113364;28;828;-66
2022/06/23 09:35:56;;;;;;;;;;;;;;;;;;5111874;28;1964;-66
2022/06/23 09:38:24;;;;;;;;;;;;;;;;;;5112768;28;879;-66
2022/06/23 09:40:49;;;;;;;;;;;;;;;;;;5113701;28;895;-66
2022/06/23 09:43:33;;;;;;;;;;;;;;;;;;5113029;28;832;-66
2022/06/23 09:46:13;;;;;;;;;;;;;;;;;;5113504;28;963;-66
2022/06/23 09:48:41;;;;;;;;;;;;;;;;;;5113839;28;919;-66
2022/06/23 09:51:06;;;;;;;;;;;;;;;;;;5112149;28;1403;-66
2022/06/23 09:53:32;;;;;;;;;;;;;;;;;;5113220;28;801;-66
2022/06/23 09:56:09;;;;;;;;;;;;;;;;;;5114223;28;1959;-67
2022/06/23 09:58:49;;;;;;;;;;;;;;;;;;5113310;28;808;-67
2022/06/23 10:01:33;;;;;;;;;;;;;;;;;;5113042;28;836;-67
2022/06/23 10:04:17;;;;;;;;;;;;;;;;;;5113170;28;682;-67
2022/06/23 10:06:50;;;;;;;;;;;;;;;;;;5112180;28;1225;-66
2022/06/23 10:09:38;;;;;;;;;;;;;;;;;;5111514;28;1351;-67
2022/06/23 10:12:29;;;;;;;;;;;;;;;;;;5113459;28;922;-67
2022/06/23 10:15:10;;;;;;;;;;;;;;;;;;5111133;28;1133;-67
2022/06/23 10:18:04;;;;;;;;;;;;;;;;;;5113447;28;915;-67
2022/06/23 10:20:29;;;;;;;;;;;;;;;;;;5074443;28;1101;-67
2022/06/23 10:23:04;;;;;;;;;;;;;;;;;;5112982;28;1127;-67
2022/06/23 10:25:38;;;;;;;;;;;;;;;;;;5112284;28;911;-67
2022/06/23 10:28:07;;;;;;;;;;;;;;;;;;5112246;28;922;-67
2022/06/23 10:30:35;;;;;;;;;;;;;;;;;;5111753;28;1065;-67
2022/06/23 10:33:19;;;;;;;;;;;;;;;;;;5110871;28;1226;-67
2022/06/23 10:35:44;;;;;;;;;;;;;;;;;;5112113;28;1909;-67
2022/06/23 10:38:12;;;;;;;;;;;;;;;;;;5111997;28;1037;-66
2022/06/23 10:41:12;;;;;;;;;;;;;;;;;;5112132;28;976;-67
2022/06/23 10:43:55;;;;;;;;;;;;;;;;;;5069297;28;1255;-67
2022/06/23 10:46:24;;;;;;;;;;;;;;;;;;5107872;28;923;-67
2022/06/23 10:48:55;;;;;;;;;;;;;;;;;;5112461;28;903;-67
2022/06/23 10:51:34;;;;;;;;;;;;;;;;;;5112117;28;876;-67
2022/06/23 10:54:00;;;;;;;;;;;;;;;;;;5112456;28;824;-67
2022/06/23 10:56:43;;;;;;;;;;;;;;;;;;5111459;28;1909;-67
2022/06/23 10:59:17;;;;;;;;;;;;;;;;;;5112405;28;927;-67
2022/06/23 11:01:43;;;;;;;;;;;;;;;;;;5111820;28;868;-67
2022/06/23 11:04:24;;;;;;;;;;;;;;;;;;5110683;28;1312;-67
2022/06/23 11:06:52;;;;;;;;;;;;;;;;;;5112108;27;938;-67
2022/06/23 11:09:40;;;;;;;;;;;;;;;;;;5111050;28;867;-67
2022/06/23 11:12:09;;;;;;;;;;;;;;;;;;5111667;28;761;-67
2022/06/23 11:14:45;;;;;;;;;;;;;;;;;;5111233;28;898;-67
2022/06/23 11:17:14;;;;;;;;;;;;;;;;;;5111772;28;1914;-67
2022/06/23 11:19:42;;;;;;;;;;;;;;;;;;5110288;28;1177;-67
2022/06/23 11:22:26;;;;;;;;;;;;;;;;;;5111654;28;777;-67
2022/06/23 11:24:54;;;;;;;;;;;;;;;;;;5110039;28;1356;-67
2022/06/23 11:27:25;;;;;;;;;;;;;;;;;;5109922;28;1210;-66
2022/06/23 11:29:53;;;;;;;;;;;;;;;;;;5111662;28;836;-67
2022/06/23 11:32:37;;;;;;;;;;;;;;;;;;5110625;28;1271;-67
2022/06/23 11:35:05;;;;;;;;;;;;;;;;;;5111588;28;1913;-66
2022/06/23 11:37:30;;;;;;;;;;;;;;;;;;5109355;28;1289;-66
2022/06/23 11:40:10;;;;;;;;;;;;;;;;;;5111840;28;1037;-66
2022/06/23 11:42:59;;;;;;;;;;;;;;;;;;5111434;28;895;-66
2022/06/23 11:45:34;;;;;;;;;;;;;;;;;;5101637;28;1549;-66
2022/06/23 11:48:18;;;;;;;;;;;;;;;;;;5112031;28;855;-66
2022/06/23 11:50:49;;;;;;;;;;;;;;;;;;5111879;28;840;-67
2022/06/23 11:53:26;;;;;;;;;;;;;;;;;;5111132;28;876;-66
2022/06/23 11:56:24;;;;;;;;;;;;;;;;;;5111799;28;1910;-66
2022/06/23 11:58:49;;;;;;;;;;;;;;;;;;5076142;28;1306;-65
2022/06/23 12:01:17;;;;;;;;;;;;;;;;;;5109819;28;1383;-66
2022/06/23 12:03:42;;;;;;;;;;;;;;;;;;5110277;28;1115;-66
2022/06/23 12:06:07;;;;;;;;;;;;;;;;;;5111435;28;832;-66
2022/06/23 12:08:36;;;;;;;;;;;;;;;;;;5111114;28;958;-67
2022/06/23 12:11:02;;;;;;;;;;;;;;;;;;5111246;28;824;-66
2022/06/23 12:13:28;;;;;;;;;;;;;;;;;;5110406;28;781;-66
2022/06/23 12:15:55;;;;;;;;;;;;;;;;;;5110246;28;1898;-67
2022/06/23 12:18:32;;;;;;;;;;;;;;;;;;5091860;28;1357;-66
2022/06/23 12:20:57;;;;;;;;;;;;;;;;;;5111108;28;833;-66
2022/06/23 12:23:29;;;;;;;;;;;;;;;;;;5110700;28;860;-66
2022/06/23 12:25:54;;;;;;;;;;;;;;;;;;5111202;28;910;-66
2022/06/23 12:28:25;;;;;;;;;;;;;;;;;;5115212;28;969;-66
2022/06/23 12:30:57;;;;;;;;;;;;;;;;;;5114960;28;1065;-66
2022/06/23 12:33:33;;;;;;;;;;;;;;;;;;5114714;28;856;-66
2022/06/23 12:36:05;;;;;;;;;;;;;;;;;;5114996;28;1910;-66
2022/06/23 12:38:35;;;;;;;;;;;;;;;;;;5113126;28;1249;-65
2022/06/23 12:41:06;;;;;;;;;;;;;;;;;;5115114;28;844;-66
2022/06/23 12:43:43;;;;;;;;;;;;;;;;;;5114610;28;825;-65
2022/06/23 12:46:10;;;;;;;;;;;;;;;;;;5114780;28;911;-65
2022/06/23 12:48:54;;;;;;;;;;;;;;;;;;5114263;28;911;-66
2022/06/23 12:51:19;;;;;;;;;;;;;;;;;;5114202;28;836;-66
2022/06/23 12:54:04;;;;;;;;;;;;;;;;;;5114525;28;872;-66
2022/06/23 12:56:48;;;;;;;;;;;;;;;;;;5112477;28;1882;-66
2022/06/23 12:59:20;;;;;;;;;;;;;;;;;;5113421;28;1528;-66
2022/06/23 13:02:05;;;;;;;;;;;;;;;;;;5113001;28;875;-66
2022/06/23 13:04:31;;;;;;;;;;;;;;;;;;5113582;28;1219;-66
2022/06/23 13:07:06;;;;;;;;;;;;;;;;;;5114759;28;836;-66
2022/06/23 13:09:31;;;;;;;;;;;;;;;;;;5114399;28;837;-66
2022/06/23 13:12:07;;;;;;;;;;;;;;;;;;5112897;28;1221;-66
2022/06/23 13:14:38;;;;;;;;;;;;;;;;;;5112379;28;1209;-66
2022/06/23 13:17:07;;;;;;;;;;;;;;;;;;5114312;28;1949;-66
2022/06/23 13:19:42;;;;;;;;;;;;;;;;;;5113818;28;769;-66
2022/06/23 13:22:09;;;;;;;;;;;;;;;;;;5113983;28;1136;-67
2022/06/23 13:24:36;;;;;;;;;;;;;;;;;;5112292;28;1564;-66
2022/06/23 13:27:06;;;;;;;;;;;;;;;;;;5114712;28;873;-66
2022/06/23 13:29:36;;;;;;;;;;;;;;;;;;5114589;28;872;-65
2022/06/23 13:32:22;;;;;;;;;;;;;;;;;;5114585;28;1226;-65
2022/06/23 13:35:04;;;;;;;;;;;;;;;;;;5114474;28;1325;-66
2022/06/23 13:37:33;;;;;;;;;;;;;;;;;;5113187;28;1915;-66
2022/06/23 13:40:14;;;;;;;;;;;;;;;;;;5112339;28;1447;-65
2022/06/23 13:42:59;;;;;;;;;;;;;;;;;;5112604;28;1326;-67
2022/06/23 13:45:33;;;;;;;;;;;;;;;;;;5113748;28;848;-67
2022/06/23 13:48:07;;;;;;;;;;;;;;;;;;5114086;28;899;-67
2022/06/23 13:50:33;;;;;;;;;;;;;;;;;;5124753;27;1123;-67
2022/06/23 13:52:58;;;;;;;;;;;;;;;;;;5133940;27;848;-67
2022/06/23 13:55:38;;;;;;;;;;;;;;;;;;5133527;27;1902;-66
2022/06/23 13:58:27;;;;;;;;;;;;;;;;;;5132277;27;1480;-67
2022/06/23 14:00:58;;;;;;;;;;;;;;;;;;5124770;27;1175;-67
2022/06/23 14:03:42;;;;;;;;;;;;;;;;;;5131998;27;1166;-67
2022/06/23 14:06:28;;;;;;;;;;;;;;;;;;5132131;27;1378;-66
2022/06/23 14:09:13;;;;;;;;;;;;;;;;;;5121645;27;1225;-67
2022/06/23 14:12:01;;;;;;;;;;;;;;;;;;5089600;27;1374;-66
2022/06/23 14:14:41;;;;;;;;;;;;;;;;;;5133091;27;884;-66
2022/06/23 14:17:06;;;;;;;;;;;;;;;;;;5132360;27;1878;-66
2022/06/23 14:19:32;;;;;;;;;;;;;;;;;;5133052;27;1049;-67
2022/06/23 14:22:00;;;;;;;;;;;;;;;;;;5132862;27;938;-67
2022/06/23 14:24:31;;;;;;;;;;;;;;;;;;5132762;27;918;-67
2022/06/23 14:27:15;;;;;;;;;;;;;;;;;;5133041;27;1010;-67
2022/06/23 14:29:46;;;;;;;;;;;;;;;;;;5132683;27;1013;-66
2022/06/23 14:32:15;;;;;;;;;;;;;;;;;;5133013;27;1390;-66
2022/06/23 14:34:47;;;;;;;;;;;;;;;;;;5131493;27;1213;-66
2022/06/23 14:37:15;;;;;;;;;;;;;;;;;;5133062;27;1937;-66
2022/06/23 14:39:43;;;;;;;;;;;;;;;;;;5132487;27;1003;-67
2022/06/23 14:42:27;;;;;;;;;;;;;;;;;;5131782;27;1300;-67
2022/06/23 14:44:52;;;;;;;;;;;;;;;;;;5132887;27;982;-67
2022/06/23 14:47:30;;;;;;;;;;;;;;;;;;5133010;27;1125;-67
2022/06/23 14:50:01;;;;;;;;;;;;;;;;;;5133028;27;784;-66
2022/06/23 14:52:31;;;;;;;;;;;;;;;;;;5132554;27;836;-67
2022/06/23 14:55:07;;;;;;;;;;;;;;;;;;5132507;27;945;-66
2022/06/23 14:57:35;;;;;;;;;;;;;;;;;;5132230;27;1969;-67
2022/06/23 15:00:10;;;;;;;;;;;;;;;;;;5130831;27;1217;-67
2022/06/23 15:02:42;;;;;;;;;;;;;;;;;;5132251;27;839;-66
2022/06/23 15:05:40;;;;;;;;;;;;;;;;;;5131497;27;1170;-66
2022/06/23 15:08:17;;;;;;;;;;;;;;;;;;5098235;27;1143;-67
2022/06/23 15:10:54;;;;;;;;;;;;;;;;;;5132816;27;958;-67
2022/06/23 15:13:28;;;;;;;;;;;;;;;;;;5133459;27;851;-67
2022/06/23 15:16:02;;;;;;;;;;;;;;;;;;5132724;27;1906;-67
2022/06/23 15:18:35;;;;;;;;;;;;;;;;;;5132845;27;911;-67
2022/06/23 15:21:00;;;;;;;;;;;;;;;;;;5132394;27;1002;-66
2022/06/23 15:23:28;;;;;;;;;;;;;;;;;;5132407;27;994;-67
2022/06/23 15:25:54;;;;;;;;;;;;;;;;;;5132586;27;781;-66
2022/06/23 15:28:48;;;;;;;;;;;;;;;;;;5132593;27;895;-67
2022/06/23 15:31:20;;;;;;;;;;;;;;;;;;5118411;27;1186;-67
2022/06/23 15:33:53;;;;;;;;;;;;;;;;;;5132658;27;831;-67
2022/06/23 15:36:24;;;;;;;;;;;;;;;;;;5131699;27;1901;-67
2022/06/23 15:38:57;;;;;;;;;;;;;;;;;;5131988;27;777;-68
2022/06/23 15:41:41;;;;;;;;;;;;;;;;;;5130577;27;1114;-67
2022/06/23 15:44:10;;;;;;;;;;;;;;;;;;5130520;27;1197;-66
2022/06/23 15:47:10;;;;;;;;;;;;;;;;;;5131309;27;926;-67
2022/06/23 15:49:36;;;;;;;;;;;;;;;;;;5051189;28;1279;-67
2022/06/23 15:52:19;;;;;;;;;;;;;;;;;;5118201;27;1113;-66
2022/06/23 15:55:05;;;;;;;;;;;;;;;;;;5131927;27;923;-67
2022/06/23 15:57:46;;;;;;;;;;;;;;;;;;5131344;27;1964;-66
2022/06/23 16:00:12;;;;;;;;;;;;;;;;;;5132074;27;1141;-66
2022/06/23 16:02:57;;;;;;;;;;;;;;;;;;5131162;27;840;-66
2022/06/23 16:05:24;;;;;;;;;;;;;;;;;;5130211;28;1169;-66
2022/06/23 16:07:59;;;;;;;;;;;;;;;;;;5131581;27;1054;-66
2022/06/23 16:10:47;;;;;;;;;;;;;;;;;;5130598;28;1197;-66
2022/06/23 16:13:16;;;;;;;;;;;;;;;;;;5132052;27;1273;-66
2022/06/23 16:15:42;;;;;;;;;;;;;;;;;;5131751;27;1929;-66
2022/06/23 16:18:12;;;;;;;;;;;;;;;;;;5132197;27;983;-67
2022/06/23 16:20:43;;;;;;;;;;;;;;;;;;5131935;27;887;-66
2022/06/23 16:23:31;;;;;;;;;;;;;;;;;;5131643;27;813;-66
2022/06/23 16:26:01;;;;;;;;;;;;;;;;;;5129775;28;1280;-66
2022/06/23 16:28:29;;;;;;;;;;;;;;;;;;5130002;27;1193;-66
2022/06/23 16:30:55;;;;;;;;;;;;;;;;;;5131301;27;1286;-66
2022/06/23 16:33:46;;;;;;;;;;;;;;;;;;5131684;27;809;-66
2022/06/23 16:36:15;;;;;;;;;;;;;;;;;;5125635;27;1901;-66
2022/06/23 16:38:58;;;;;;;;;;;;;;;;;;5130948;27;915;-67
2022/06/23 16:41:39;;;;;;;;;;;;;;;;;;5129862;28;1245;-67
2022/06/23 16:44:09;;;;;;;;;;;;;;;;;;5131336;28;902;-67
2022/06/23 16:46:37;;;;;;;;;;;;;;;;;;5112570;28;1174;-66
2022/06/23 16:49:03;;;;;;;;;;;;;;;;;;5131131;27;958;-65
2022/06/23 16:51:46;;;;;;;;;;;;;;;;;;5129387;27;1237;-66
2022/06/23 16:54:24;;;;;;;;;;;;;;;;;;5131424;27;796;-65
2022/06/23 16:56:56;;;;;;;;;;;;;;;;;;5131249;27;1975;-66
2022/06/23 16:59:22;;;;;;;;;;;;;;;;;;5131169;27;907;-66
2022/06/23 17:01:52;;;;;;;;;;;;;;;;;;5131936;27;911;-66
2022/06/23 17:04:21;;;;;;;;;;;;;;;;;;5129727;28;1248;-66
2022/06/23 17:07:04;;;;;;;;;;;;;;;;;;5130421;27;1142;-66
2022/06/23 17:09:33;;;;;;;;;;;;;;;;;;5131669;27;982;-66
2022/06/23 17:12:01;;;;;;;;;;;;;;;;;;5131795;27;931;-66
2022/06/23 17:14:30;;;;;;;;;;;;;;;;;;5135159;27;895;-65
2022/06/23 17:16:59;;;;;;;;;;;;;;;;;;5134923;27;1906;-65
2022/06/23 17:19:27;;;;;;;;;;;;;;;;;;5133119;27;1708;-65
2022/06/23 17:22:11;;;;;;;;;;;;;;;;;;5134978;27;935;-66
2022/06/23 17:24:39;;;;;;;;;;;;;;;;;;5132772;27;1305;-66
2022/06/23 17:27:15;;;;;;;;;;;;;;;;;;5133910;27;1020;-65
2022/06/23 17:29:44;;;;;;;;;;;;;;;;;;5132739;27;837;-66
2022/06/23 17:32:16;;;;;;;;;;;;;;;;;;5133953;27;1213;-66
2022/06/23 17:34:45;;;;;;;;;;;;;;;;;;5133983;27;856;-66
2022/06/23 17:37:24;;;;;;;;;;;;;;;;;;5133945;27;1914;-66
2022/06/23 17:46:17;;;;;;;;;;;;;;;;;;5134620;27;654;-66
2022/06/23 17:48:50;;;;;;;;;;;;;;;;;;5133703;27;951;-66
2022/06/23 17:51:15;;;;;;;;;;;;;;;;;;5133641;27;895;-67
2022/06/23 17:53:48;;;;;;;;;;;;;;;;;;5133438;27;899;-66
2022/06/23 17:56:14;;;;;;;;;;;;;;;;;;5133501;27;1955;-66
2022/06/23 17:58:44;;;;;;;;;;;;;;;;;;5133867;27;1006;-65
2022/06/23 18:01:15;;;;;;;;;;;;;;;;;;5133923;27;863;-66
2022/06/23 18:03:46;;;;;;;;;;;;;;;;;;5133983;27;923;-66
2022/06/23 18:06:11;;;;;;;;;;;;;;;;;;5131848;27;1258;-66
2022/06/23 18:08:37;;;;;;;;;;;;;;;;;;5133708;27;828;-66
2022/06/23 18:11:04;;;;;;;;;;;;;;;;;;5132281;27;1410;-66